Time;durP1;ratioP1;P1;durP2;ratioP2;P2;SDS_P1;SDS_P2;PMS_P1;PMS_P2;Temp;Humidity;BMP_temperature;BMP_pressure;BME280_temperature;BME280_humidity;BME280_pressure;Samples;Min_cycle;Max_cycle;Signal;HPM_P1;HPM_P2
2023/01/20 00:01:32;;;;;;;5.40;3.30;;;;;;;13.80;54.27;99418.53;5071880;28;20098;-58
2023/01/20 00:04:00;;;;;;;5.10;3.60;;;;;;;13.75;53.98;99410.88;5071837;28;20079;-58
2023/01/20 00:06:28;;;;;;;5.20;3.70;;;;;;;13.73;53.68;99410.16;5071903;28;20178;-58
2023/01/20 00:08:59;;;;;;;4.53;3.30;;;;;;;13.70;54.20;99418.50;5071855;28;20048;-58
2023/01/20 00:11:29;;;;;;;5.32;3.58;;;;;;;13.66;54.09;99417.03;5071819;28;20090;-58
2023/01/20 00:13:59;;;;;;;6.45;3.47;;;;;;;13.64;54.06;99410.97;5071715;28;20045;-58
2023/01/20 00:16:27;;;;;;;5.57;4.05;;;;;;;13.62;53.96;99410.25;5071818;28;20051;-58
2023/01/20 00:18:57;;;;;;;6.45;4.30;;;;;;;13.60;54.41;99409.50;5071947;28;20041;-57
2023/01/20 00:21:25;;;;;;;5.70;3.88;;;;;;;13.55;54.29;99416.25;5071822;28;20477;-58
2023/01/20 00:23:54;;;;;;;6.38;3.97;;;;;;;13.50;54.40;99424.69;5071460;28;20129;-58
2023/01/20 00:26:24;;;;;;;4.97;3.30;;;;;;;13.51;54.12;99437.13;5071684;28;20063;-58
2023/01/20 00:28:56;;;;;;;5.88;3.63;;;;;;;13.49;54.48;99439.06;5075515;28;20057;-58
2023/01/20 00:31:26;;;;;;;5.68;3.90;;;;;;;13.48;54.43;99445.41;5075708;28;20055;-58
2023/01/20 00:33:57;;;;;;;6.15;3.80;;;;;;;13.44;54.15;99443.97;5075698;28;20405;-58
2023/01/20 00:36:27;;;;;;;5.15;3.50;;;;;;;13.40;54.18;99450.53;5075674;28;20048;-57
2023/01/20 00:38:56;;;;;;;6.22;3.67;;;;;;;13.42;54.65;99462.00;5075546;28;20051;-57
2023/01/20 00:41:24;;;;;;;5.05;3.55;;;;;;;13.39;54.27;99456.88;5075469;28;20048;-58
2023/01/20 00:43:52;;;;;;;5.10;3.33;;;;;;;13.36;54.69;99459.84;5075443;28;20049;-59
2023/01/20 00:46:21;;;;;;;6.03;4.13;;;;;;;13.34;54.21;99461.78;5075414;28;20045;-59
2023/01/20 00:48:50;;;;;;;4.95;3.35;;;;;;;13.33;54.70;99466.31;5075379;28;20048;-59
2023/01/20 00:51:19;;;;;;;5.50;3.22;;;;;;;13.29;54.84;99467.53;5075239;28;20102;-59
2023/01/20 00:53:47;;;;;;;5.22;3.83;;;;;;;13.29;54.92;99477.38;5075181;28;20045;-60
2023/01/20 00:56:15;;;;;;;5.43;3.80;;;;;;;13.28;54.19;99478.38;5075261;28;20040;-58
2023/01/20 00:58:45;;;;;;;5.22;3.78;;;;;;;13.25;55.04;99470.59;5075225;28;20094;-58
2023/01/20 01:01:13;;;;;;;5.70;3.95;;;;;;;13.20;54.67;99460.25;5075096;28;20106;-59
2023/01/20 01:03:42;;;;;;;4.97;3.13;;;;;;;13.18;54.83;99465.72;5074906;28;20048;-57
2023/01/20 01:06:13;;;;;;;4.90;3.20;;;;;;;13.17;54.79;99457.81;5075031;28;20114;-59
2023/01/20 01:08:44;;;;;;;6.15;3.95;;;;;;;13.13;54.75;99451.88;5075119;28;20044;-58
2023/01/20 01:11:12;;;;;;;4.47;3.55;;;;;;;13.13;54.83;99430.47;5074980;28;20416;-57
2023/01/20 01:13:41;;;;;;;4.75;3.25;;;;;;;13.10;54.82;99430.69;5074824;28;20048;-58
2023/01/20 01:16:11;;;;;;;5.18;3.30;;;;;;;13.10;54.85;99432.53;5074774;28;20544;-57
2023/01/20 01:18:40;;;;;;;6.47;3.90;;;;;;;13.09;54.85;99433.50;5074624;28;20051;-61
2023/01/20 01:21:10;;;;;;;5.32;4.13;;;;;;;13.06;55.00;99429.25;5074857;28;20048;-59
2023/01/20 01:23:38;;;;;;;6.10;3.90;;;;;;;13.01;55.16;99420.75;5074553;28;20045;-59
2023/01/20 01:26:08;;;;;;;5.25;3.70;;;;;;;13.03;55.05;99423.31;5074625;28;20123;-59
2023/01/20 01:28:37;;;;;;;4.50;2.85;;;;;;;13.02;55.30;99424.28;5074467;28;20114;-59
2023/01/20 01:31:07;;;;;;;5.53;3.85;;;;;;;12.97;55.28;99411.28;5074548;28;20425;-59
2023/01/20 01:33:35;;;;;;;5.32;3.47;;;;;;;12.97;55.07;99405.94;5074498;28;20131;-59
2023/01/20 01:36:04;;;;;;;4.40;2.92;;;;;;;12.94;55.21;99398.16;5074462;28;20052;-59
2023/01/20 01:38:32;;;;;;;5.55;3.65;;;;;;;12.94;55.26;99398.16;5074283;28;20060;-59
2023/01/20 01:41:01;;;;;;;5.18;3.40;;;;;;;12.92;55.23;99402.78;5074427;28;20481;-59
2023/01/20 01:43:33;;;;;;;6.00;4.15;;;;;;;12.93;55.24;99396.44;5074148;28;20044;-59
2023/01/20 01:46:01;;;;;;;6.00;4.20;;;;;;;12.90;54.89;99394.03;5074513;28;20044;-59
2023/01/20 01:48:36;;;;;;;5.65;3.50;;;;;;;12.91;55.19;99401.06;5074390;28;20048;-59
2023/01/20 01:51:07;;;;;;;5.38;4.00;;;;;;;12.88;54.98;99394.16;5074174;28;20467;-59
2023/01/20 01:53:41;;;;;;;5.10;3.30;;;;;;;12.85;55.28;99385.56;5074171;28;20083;-59
2023/01/20 01:56:11;;;;;;;5.43;3.90;;;;;;;12.84;55.50;99387.38;5074068;28;20049;-59
2023/01/20 01:58:45;;;;;;;5.05;3.47;;;;;;;12.84;55.54;99386.53;5074004;28;20127;-59
2023/01/20 02:01:13;;;;;;;5.82;4.20;;;;;;;12.81;55.63;99368.03;5073900;28;20048;-59
2023/01/20 02:03:49;;;;;;;5.82;3.92;;;;;;;12.78;55.40;99377.16;5073880;28;20044;-59
2023/01/20 02:06:19;;;;;;;5.05;3.58;;;;;;;12.78;55.37;99381.69;5073871;28;20040;-59
2023/01/20 02:08:48;;;;;;;5.85;3.95;;;;;;;12.76;55.24;99375.59;5073724;28;20610;-59
2023/01/20 02:11:16;;;;;;;6.20;4.35;;;;;;;12.75;55.10;99385.47;5073899;28;20467;-59
2023/01/20 02:13:46;;;;;;;4.82;3.50;;;;;;;12.75;55.45;99381.94;5073887;28;20374;-59
2023/01/20 02:16:20;;;;;;;5.70;3.80;;;;;;;12.73;55.50;99381.19;5073765;28;20497;-60
2023/01/20 02:19:04;;;;;;;5.72;4.07;;;;;;;12.72;55.33;99371.47;5073651;28;20055;-59
2023/01/20 02:22:12;;;;;;;5.97;3.75;;;;;;;12.69;55.35;99379.75;5073696;28;20048;-58
2023/01/20 02:25:03;;;;;;;5.40;3.45;;;;;;;12.68;55.22;99384.25;5073447;28;20100;-60
2023/01/20 02:27:57;;;;;;;5.38;3.58;;;;;;;12.67;55.37;99379.03;5073362;28;20132;-59
2023/01/20 02:30:38;;;;;;;;;;;;;;;12.65;55.44;99383.69;5073870;28;20115;-59
2023/01/20 02:33:12;;;;;;;5.60;3.35;;;;;;;12.61;55.42;99377.72;5073282;28;20010;-59
2023/01/20 02:35:45;;;;;;;4.63;3.38;;;;;;;12.62;55.69;99387.44;5073223;28;20485;-60
2023/01/20 02:38:24;;;;;;;5.32;3.38;;;;;;;12.59;55.56;99382.34;5073433;28;20128;-60
2023/01/20 02:41:00;;;;;;;5.10;3.42;;;;;;;12.58;55.60;99381.50;5073248;28;20119;-59
2023/01/20 02:43:34;;;;;;;4.82;3.40;;;;;;;12.57;55.54;99381.63;5073054;28;20086;-58
2023/01/20 02:46:11;;;;;;;5.93;3.58;;;;;;;12.55;55.72;99387.09;5073173;28;20051;-59
2023/01/20 02:48:46;;;;;;;4.40;3.15;;;;;;;12.54;55.56;99393.41;5073002;28;20378;-59
2023/01/20 02:51:19;;;;;;;5.32;3.30;;;;;;;12.52;55.44;99392.69;5072371;28;20497;-59
2023/01/20 02:53:51;;;;;;;5.47;3.28;;;;;;;12.51;55.53;99391.00;5072921;28;20045;-58
2023/01/20 02:56:24;;;;;;;5.15;3.10;;;;;;;12.50;55.49;99393.78;5072875;28;20048;-58
2023/01/20 02:58:54;;;;;;;;;;;;;;;12.49;55.59;99394.78;5073041;28;20098;-58
2023/01/20 03:01:26;;;;;;;4.72;3.25;;;;;;;12.48;55.67;99399.28;5072686;28;19920;-58
2023/01/20 03:03:59;;;;;;;5.10;3.17;;;;;;;12.45;55.67;99395.97;5072580;28;20074;-59
2023/01/20 03:06:34;;;;;;;5.30;3.72;;;;;;;12.45;55.49;99407.56;5072452;28;20489;-58
2023/01/20 03:09:06;;;;;;;4.80;3.30;;;;;;;12.45;55.40;99406.69;5072656;28;20123;-59
2023/01/20 03:11:38;;;;;;;5.00;3.03;;;;;;;12.44;55.45;99410.34;5072644;28;20404;-58
2023/01/20 03:14:10;;;;;;;4.93;3.03;;;;;;;12.44;55.58;99421.88;5072516;28;20054;-58
2023/01/20 03:16:40;;;;;;;4.72;3.63;;;;;;;12.43;55.27;99425.53;5072560;28;20040;-58
2023/01/20 03:19:10;;;;;;;6.22;3.38;;;;;;;12.41;55.50;99419.47;5072404;28;20469;-58
2023/01/20 03:21:39;;;;;;;5.28;3.47;;;;;;;12.39;55.55;99418.75;5072381;28;20044;-58
2023/01/20 03:24:08;;;;;;;4.57;3.22;;;;;;;12.38;55.41;99422.41;5072207;28;20098;-58
2023/01/20 03:26:37;;;;;;;4.78;3.25;;;;;;;12.40;55.53;99428.47;5072345;28;20052;-58
2023/01/20 03:29:08;;;;;;;5.07;3.15;;;;;;;12.38;55.66;99422.41;5072082;28;20078;-58
2023/01/20 03:31:39;;;;;;;4.55;3.20;;;;;;;12.42;56.05;99429.19;5072239;28;20489;-58
2023/01/20 03:34:12;;;;;;;4.38;3.13;;;;;;;12.47;56.60;99432.34;5072137;28;20051;-58
2023/01/20 03:36:43;;;;;;;4.68;2.90;;;;;;;12.55;56.61;99434.41;5072132;28;20079;-57
2023/01/20 03:39:12;;;;;;;4.40;2.85;;;;;;;12.65;56.78;99429.16;5072147;28;20041;-57
2023/01/20 03:42:04;;;;;;;4.45;2.70;;;;;;;12.76;56.82;99431.81;5072176;28;20058;-59
2023/01/20 03:44:44;;;;;;;4.30;2.75;;;;;;;12.84;56.86;99418.66;5072074;28;20051;-60
2023/01/20 03:47:20;;;;;;;4.70;2.92;;;;;;;12.89;56.92;99411.91;5071989;28;20102;-59
2023/01/20 03:49:55;;;;;;;3.80;2.47;;;;;;;12.99;56.73;99417.34;5072107;28;20048;-59
2023/01/20 03:52:31;;;;;;;4.28;2.92;;;;;;;13.05;56.45;99416.00;5071907;28;20094;-57
2023/01/20 03:55:20;;;;;;;4.22;2.60;;;;;;;13.05;56.52;99416.84;5071880;28;20052;-58
2023/01/20 03:57:53;;;;;;;3.92;2.60;;;;;;;13.07;56.49;99406.84;5071885;28;20041;-58
2023/01/20 04:00:25;;;;;;;3.63;2.40;;;;;;;13.08;56.52;99405.88;5071874;28;20048;-57
2023/01/20 04:02:59;;;;;;;4.85;2.60;;;;;;;13.10;56.44;99406.59;5070905;28;20055;-59
2023/01/20 04:05:29;;;;;;;3.67;2.30;;;;;;;13.10;56.45;99397.72;5071795;28;20044;-59
2023/01/20 04:08:01;;;;;;;3.60;2.30;;;;;;;13.09;56.47;99410.25;5071646;28;20054;-59
2023/01/20 04:10:32;;;;;;;4.03;2.40;;;;;;;13.09;56.23;99396.88;5071738;28;20049;-59
2023/01/20 04:13:01;;;;;;;4.07;2.80;;;;;;;13.08;56.21;99400.53;5071706;28;20048;-58
2023/01/20 04:15:34;;;;;;;5.10;2.85;;;;;;;13.04;56.22;99404.44;5071690;28;20044;-59
2023/01/20 04:18:13;;;;;;;4.90;2.47;;;;;;;13.06;56.43;99405.16;5071745;28;20041;-59
2023/01/20 04:20:44;;;;;;;3.92;2.72;;;;;;;13.05;56.33;99406.16;5071643;28;20052;-59
2023/01/20 04:23:20;;;;;;;3.83;2.50;;;;;;;13.02;56.13;99401.03;5071735;28;20075;-59
2023/01/20 04:25:48;;;;;;;3.90;2.80;;;;;;;13.02;56.32;99411.72;5071635;28;20056;-57
2023/01/20 04:28:17;;;;;;;4.07;2.55;;;;;;;12.96;56.26;99404.25;5071394;28;20524;-58
2023/01/20 04:30:45;;;;;;;3.72;2.58;;;;;;;12.97;55.96;99405.09;5071484;28;20079;-58
2023/01/20 04:33:16;;;;;;;4.28;2.95;;;;;;;12.92;56.18;99405.44;5071496;28;20068;-58
2023/01/20 04:35:45;;;;;;;4.45;2.65;;;;;;;12.97;56.00;99413.13;5071602;28;20134;-57
2023/01/20 04:38:14;;;;;;;3.60;2.40;;;;;;;12.96;56.00;99414.94;5071384;28;20052;-58
2023/01/20 04:40:42;;;;;;;4.43;3.08;;;;;;;12.98;56.13;99410.31;5071583;28;20068;-58
2023/01/20 04:43:11;;;;;;;4.10;2.55;;;;;;;13.03;56.20;99413.47;5071420;28;20072;-57
2023/01/20 04:45:41;;;;;;;4.05;2.47;;;;;;;13.12;56.60;99414.50;5071415;28;20067;-57
2023/01/20 04:48:09;;;;;;;3.83;2.33;;;;;;;13.19;56.46;99421.06;5071391;28;20045;-57
2023/01/20 04:50:39;;;;;;;4.50;2.53;;;;;;;13.25;56.35;99417.88;5071291;28;20489;-57
2023/01/20 04:53:12;;;;;;;3.70;2.40;;;;;;;13.35;56.35;99421.50;5071321;28;20051;-58
2023/01/20 04:55:40;;;;;;;4.22;2.55;;;;;;;13.44;56.21;99422.53;5071269;28;20049;-58
2023/01/20 04:58:09;;;;;;;4.25;2.65;;;;;;;13.56;56.14;99421.47;5071216;28;20106;-58
2023/01/20 05:00:37;;;;;;;3.60;2.30;;;;;;;13.62;55.90;99399.53;5071281;28;20044;-58
2023/01/20 05:03:06;;;;;;;3.92;2.53;;;;;;;13.70;55.86;99386.31;5071355;28;20052;-58
2023/01/20 05:05:35;;;;;;;4.30;2.75;;;;;;;13.82;55.98;99378.19;5071243;28;20119;-58
2023/01/20 05:08:04;;;;;;;4.55;2.45;;;;;;;13.88;55.95;99377.63;5071322;28;20127;-58
2023/01/20 05:10:34;;;;;;;4.70;2.63;;;;;;;13.92;55.82;99369.22;5071114;28;20048;-57
2023/01/20 05:13:02;;;;;;;5.45;2.80;;;;;;;14.04;55.75;99361.91;5071949;28;20053;-58
2023/01/20 05:15:30;;;;;;;5.32;2.80;;;;;;;14.13;55.48;99361.09;5074817;28;20105;-58
2023/01/20 05:17:58;;;;;;;4.20;2.78;;;;;;;14.22;55.70;99362.97;5074760;28;20052;-57
2023/01/20 05:20:26;;;;;;;3.92;2.60;;;;;;;14.33;55.51;99352.09;5074640;28;20048;-57
2023/01/20 05:22:54;;;;;;;4.28;2.50;;;;;;;14.42;55.49;99360.31;5074529;28;20090;-58
2023/01/20 05:25:22;;;;;;;4.95;2.78;;;;;;;14.52;55.33;99362.06;5074540;28;20045;-57
2023/01/20 05:27:52;;;;;;;3.75;2.40;;;;;;;14.62;55.18;99356.72;5074476;28;20052;-58
2023/01/20 05:30:20;;;;;;;4.18;2.55;;;;;;;14.71;55.18;99366.63;5074570;28;20045;-58
2023/01/20 05:32:49;;;;;;;4.15;2.60;;;;;;;14.77;55.11;99366.06;5074579;28;20520;-57
2023/01/20 05:35:18;;;;;;;4.75;2.90;;;;;;;14.88;55.25;99365.06;5074373;28;20044;-57
2023/01/20 05:37:46;;;;;;;3.83;2.50;;;;;;;14.95;54.97;99373.38;5074245;28;20478;-56
2023/01/20 05:40:14;;;;;;;3.85;2.40;;;;;;;15.00;54.77;99376.50;5074506;28;20048;-57
2023/01/20 05:42:42;;;;;;;3.83;2.50;;;;;;;15.04;54.84;99383.28;5074281;28;20055;-57
2023/01/20 05:45:12;;;;;;;5.07;2.55;;;;;;;15.04;54.83;99372.53;5074157;28;20072;-57
2023/01/20 05:47:40;;;;;;;4.00;2.55;;;;;;;15.05;54.71;99374.25;5074299;28;20063;-58
2023/01/20 05:50:10;;;;;;;4.15;2.33;;;;;;;15.02;54.78;99369.16;5074051;28;20192;-57
2023/01/20 05:52:38;;;;;;;4.75;2.55;;;;;;;15.03;54.72;99376.22;5074065;28;20067;-58
2023/01/20 05:55:07;;;;;;;4.28;2.65;;;;;;;14.99;54.87;99372.97;5074157;28;20190;-57
2023/01/20 05:57:35;;;;;;;4.30;2.55;;;;;;;14.95;54.98;99373.38;5074131;28;20098;-58
2023/01/20 06:00:04;;;;;;;3.72;2.40;;;;;;;14.94;54.78;99375.22;5074164;28;20091;-57
2023/01/20 06:02:37;;;;;;;3.85;2.50;;;;;;;14.93;54.83;99378.06;5073947;28;20064;-57
2023/01/20 06:05:06;;;;;;;5.25;2.90;;;;;;;14.89;54.79;99388.25;5073608;28;20045;-58
2023/01/20 06:07:34;;;;;;;4.22;2.50;;;;;;;14.85;54.90;99384.97;5073827;28;20151;-57
2023/01/20 06:10:03;;;;;;;4.60;2.72;;;;;;;14.80;54.77;99381.88;5073726;28;20046;-56
2023/01/20 06:12:31;;;;;;;3.92;2.55;;;;;;;14.78;54.81;99383.88;5073653;28;20075;-57
2023/01/20 06:14:59;;;;;;;4.40;2.53;;;;;;;14.76;54.84;99380.44;5073554;28;20059;-57
2023/01/20 06:17:27;;;;;;;4.63;2.88;;;;;;;14.72;54.72;99379.03;5073458;28;20401;-57
2023/01/20 06:19:57;;;;;;;4.45;2.80;;;;;;;14.69;54.79;99367.75;5073426;28;20046;-58
2023/01/20 06:22:25;;;;;;;4.10;2.55;;;;;;;14.65;54.66;99366.31;5073528;28;20040;-58
2023/01/20 06:24:54;;;;;;;5.43;2.97;;;;;;;14.59;54.70;99367.75;5072387;28;20413;-56
2023/01/20 06:27:22;;;;;;;4.22;2.63;;;;;;;14.56;54.78;99373.34;5073229;28;20440;-57
2023/01/20 06:29:50;;;;;;;5.63;2.70;;;;;;;14.51;54.72;99359.53;5073204;28;20404;-58
2023/01/20 06:32:18;;;;;;;4.20;2.63;;;;;;;14.45;54.63;99360.06;5071495;28;20456;-58
2023/01/20 06:34:47;;;;;;;4.38;2.97;;;;;;;14.42;54.69;99366.53;5071910;28;20120;-58
2023/01/20 06:37:16;;;;;;;5.05;2.80;;;;;;;14.36;54.59;99358.19;5071523;28;20051;-58
2023/01/20 06:39:45;;;;;;;4.97;2.85;;;;;;;14.36;54.61;99360.88;5072487;28;20098;-58
2023/01/20 06:42:13;;;;;;;4.50;2.92;;;;;;;14.32;54.66;99365.66;5071159;28;20098;-58
2023/01/20 06:44:41;;;;;;;4.78;2.83;;;;;;;14.28;54.59;99375.84;5072653;28;20052;-58
2023/01/20 06:47:10;;;;;;;5.10;3.05;;;;;;;14.24;54.72;99382.44;5072583;28;20097;-59
2023/01/20 06:49:38;;;;;;;4.68;3.25;;;;;;;14.20;54.66;99383.72;5073016;28;20048;-58
2023/01/20 06:52:07;;;;;;;4.90;3.22;;;;;;;14.17;54.69;99383.97;5072794;28;20045;-59
2023/01/20 06:54:36;;;;;;;4.85;3.10;;;;;;;14.12;54.56;99396.09;5072670;28;20090;-59
2023/01/20 06:57:05;;;;;;;5.57;3.50;;;;;;;14.10;54.69;99398.06;5072796;28;20496;-60
2023/01/20 06:59:34;;;;;;;16.95;4.90;;;;;;;14.10;55.42;99404.28;5072388;28;20066;-60
2023/01/20 07:02:02;;;;;;;37.72;9.45;;;;;;;14.11;60.71;99395.25;5072443;28;20508;-60
2023/01/20 07:04:30;;;;;;;49.35;10.23;;;;;;;14.18;63.04;99396.38;5072586;28;20051;-59
2023/01/20 07:06:58;;;;;;;51.30;11.15;;;;;;;14.22;63.72;99400.50;5071498;28;20178;-59
2023/01/20 07:09:26;;;;;;;41.92;11.30;;;;;;;14.26;63.83;99403.75;5072087;28;20719;-59
2023/01/20 07:11:56;;;;;;;46.70;11.25;;;;;;;14.33;63.99;99403.09;5070992;28;20048;-59
2023/01/20 07:14:24;;;;;;;43.88;11.57;;;;;;;14.44;63.45;99409.31;5072044;28;20044;-59
2023/01/20 07:16:52;;;;;;;44.15;11.43;;;;;;;14.54;63.33;99404.84;5071935;28;20585;-59
2023/01/20 07:19:21;;;;;;;40.55;11.40;;;;;;;14.70;63.34;99412.38;5071873;28;20123;-59
2023/01/20 07:21:49;;;;;;;41.80;11.20;;;;;;;14.82;63.35;99413.94;5072134;28;20101;-59
2023/01/20 07:24:17;;;;;;;39.30;10.55;;;;;;;14.96;63.44;99420.72;5072233;28;20098;-59
2023/01/20 07:26:45;;;;;;;42.92;10.63;;;;;;;15.07;62.89;99426.84;5072051;28;20102;-59
2023/01/20 07:29:15;;;;;;;43.63;11.32;;;;;;;15.16;62.76;99419.78;5071949;28;20056;-59
2023/01/20 07:31:45;;;;;;;30.80;10.25;;;;;;;15.26;62.54;99420.63;5071981;28;20048;-59
2023/01/20 07:34:13;;;;;;;38.72;9.98;;;;;;;15.42;62.57;99428.94;5072128;28;20044;-59
2023/01/20 07:36:44;;;;;;;34.78;10.98;;;;;;;15.52;62.33;99426.22;5072030;28;20047;-59
2023/01/20 07:39:14;;;;;;;36.80;9.73;;;;;;;15.62;62.33;99426.25;5071971;28;20040;-58
2023/01/20 07:41:47;;;;;;;38.13;10.18;;;;;;;15.71;61.76;99420.00;5071961;28;20045;-59
2023/01/20 07:44:17;;;;;;;39.22;9.23;;;;;;;15.81;61.49;99425.34;5072044;28;20458;-59
2023/01/20 07:46:45;;;;;;;31.52;9.15;;;;;;;15.86;61.38;99421.25;5071816;28;20102;-59
2023/01/20 07:49:13;;;;;;;34.05;8.88;;;;;;;15.96;61.05;99423.91;5071877;28;20055;-59
2023/01/20 07:51:42;;;;;;;32.67;9.43;;;;;;;16.06;61.00;99419.34;5071835;28;20051;-59
2023/01/20 07:54:12;;;;;;;31.58;9.73;;;;;;;16.17;60.93;99424.53;5071894;28;20049;-58
2023/01/20 07:56:40;;;;;;;29.35;9.20;;;;;;;16.25;60.84;99430.03;5071883;28;20102;-58
2023/01/20 07:59:10;;;;;;;24.55;9.25;;;;;;;16.34;60.44;99433.69;5071693;28;20044;-59
2023/01/20 08:01:40;;;;;;;27.38;8.80;;;;;;;16.44;60.25;99439.00;5071686;28;20048;-58
2023/01/20 08:04:08;;;;;;;28.75;8.57;;;;;;;16.51;60.20;99440.13;5071556;28;20048;-58
2023/01/20 08:06:36;;;;;;;29.50;8.05;;;;;;;16.54;60.09;99439.81;5071569;28;20045;-58
2023/01/20 08:09:04;;;;;;;27.63;8.80;;;;;;;16.60;59.94;99444.59;5071667;28;20128;-58
2023/01/20 08:11:32;;;;;;;31.05;8.95;;;;;;;16.62;59.79;99449.84;5071669;28;20417;-58
2023/01/20 08:14:01;;;;;;;24.85;8.10;;;;;;;16.60;59.86;99437.38;5071681;28;20066;-58
2023/01/20 08:16:29;;;;;;;22.63;8.85;;;;;;;16.62;59.60;99445.28;5071538;28;20052;-60
2023/01/20 08:18:58;;;;;;;29.75;8.10;;;;;;;16.60;59.46;99445.44;5071890;28;20072;-57
2023/01/20 08:21:29;;;;;;;24.90;7.97;;;;;;;16.59;59.32;99445.56;5071650;28;20045;-59
2023/01/20 08:23:58;;;;;;;25.17;8.40;;;;;;;16.57;59.27;99450.28;5071492;28;20100;-58
2023/01/20 08:26:28;;;;;;;22.88;8.18;;;;;;;16.51;59.28;99446.34;5071277;28;20484;-58
2023/01/20 08:29:02;;;;;;;22.55;8.85;;;;;;;16.49;59.18;99458.25;5071356;28;20057;-57
2023/01/20 08:31:30;;;;;;;25.25;8.27;;;;;;;16.45;59.02;99457.69;5071439;28;20044;-58
2023/01/20 08:34:00;;;;;;;22.50;8.02;;;;;;;16.44;59.21;99456.00;5071318;28;20497;-58
2023/01/20 08:36:33;;;;;;;21.60;7.80;;;;;;;16.40;59.12;99454.59;5071735;28;20079;-58
2023/01/20 08:39:03;;;;;;;;;;;;;;;16.36;59.16;99458.59;5071754;28;20131;-58
2023/01/20 08:41:35;;;;;;;22.60;7.35;;;;;;;16.30;58.97;99454.63;5071314;28;19967;-58
2023/01/20 08:44:05;;;;;;;20.70;7.72;;;;;;;16.28;59.10;99451.25;5071472;28;20122;-59
2023/01/20 08:46:34;;;;;;;27.08;8.48;;;;;;;16.25;58.96;99461.47;5071078;28;20045;-59
2023/01/20 08:49:06;;;;;;;20.00;7.80;;;;;;;16.21;58.95;99458.25;5073757;28;20125;-59
2023/01/20 08:51:34;;;;;;;21.92;8.00;;;;;;;16.18;59.08;99463.03;5075145;28;20452;-59
2023/01/20 08:54:02;;;;;;;23.75;7.90;;;;;;;16.14;59.18;99458.97;5075066;28;20386;-59
2023/01/20 08:56:32;;;;;;;19.95;7.00;;;;;;;16.10;59.22;99462.94;5075007;28;20056;-59
2023/01/20 08:59:01;;;;;;;23.30;7.72;;;;;;;16.08;59.13;99467.63;5075288;28;20396;-60
2023/01/20 09:01:32;;;;;;;23.63;7.90;;;;;;;16.05;59.12;99470.59;5074932;28;20051;-60
2023/01/20 09:04:00;;;;;;;24.95;7.78;;;;;;;16.00;59.28;99462.97;5074965;28;20048;-58
2023/01/20 09:06:41;;;;;;;25.58;8.05;;;;;;;15.98;59.17;99465.78;5074680;28;20085;-58
2023/01/20 09:09:11;;;;;;;20.63;8.27;;;;;;;15.95;59.17;99473.31;5074816;28;20140;-58
2023/01/20 09:11:41;;;;;;;25.23;8.43;;;;;;;15.90;59.16;99468.38;5074791;28;20044;-59
2023/01/20 09:14:10;;;;;;;21.77;7.68;;;;;;;15.87;59.17;99471.34;5074903;28;20086;-58
2023/01/20 09:16:38;;;;;;;20.85;6.97;;;;;;;15.82;59.17;99467.38;5074727;28;20041;-58
2023/01/20 09:19:06;;;;;;;22.35;7.35;;;;;;;15.77;59.19;99464.31;5074655;28;20119;-58
2023/01/20 09:21:35;;;;;;;21.33;7.38;;;;;;;15.77;59.18;99465.16;5074500;28;20060;-59
2023/01/20 09:24:05;;;;;;;17.13;7.13;;;;;;;15.73;59.33;99461.91;5074627;28;20048;-58
2023/01/20 09:26:40;;;;;;;21.42;7.90;;;;;;;15.67;59.31;99449.03;5074410;28;20045;-58
2023/01/20 09:29:11;;;;;;;19.45;7.30;;;;;;;15.65;59.32;99442.13;5074454;28;20055;-59
2023/01/20 09:31:43;;;;;;;19.45;6.70;;;;;;;15.60;59.27;99441.66;5074921;28;20044;-59
2023/01/20 09:34:17;;;;;;;20.20;6.90;;;;;;;15.58;59.39;99432.88;5074661;28;20049;-59
2023/01/20 09:36:49;;;;;;;19.35;6.55;;;;;;;15.54;59.26;99424.28;5074163;28;20083;-62
2023/01/20 09:45:24;;;;;;;16.13;7.45;;;;;;;15.44;59.49;99418.03;5012069;28;20046;-58
2023/01/20 09:48:02;;;;;;;17.48;6.28;;;;;;;15.41;59.25;99415.66;5055219;28;20064;-58
2023/01/20 09:53:45;;;;;;;17.13;6.75;;;;;;;15.34;59.30;99415.34;5074072;28;20432;-59
2023/01/20 09:56:17;;;;;;;16.75;6.93;;;;;;;15.29;59.33;99406.91;5074022;28;20044;-58
2023/01/20 09:58:52;;;;;;;19.77;6.43;;;;;;;15.28;59.34;99397.16;5073778;28;20127;-58
2023/01/20 10:01:29;;;;;;;17.27;6.68;;;;;;;15.25;59.39;99397.44;5073691;28;20131;-59
2023/01/20 10:04:03;;;;;;;16.33;6.93;;;;;;;15.21;59.49;99390.63;5073814;28;20101;-58
2023/01/20 10:06:37;;;;;;;16.42;6.80;;;;;;;15.18;59.52;99369.44;5073705;28;20416;-59
2023/01/20 10:09:16;;;;;;;17.63;7.00;;;;;;;15.16;59.43;99369.59;5073683;28;20064;-59
2023/01/20 10:11:47;;;;;;;16.52;6.32;;;;;;;15.14;59.63;99357.25;5073934;28;20056;-57
2023/01/20 10:14:21;;;;;;;17.15;6.45;;;;;;;15.13;59.24;99350.19;5073876;28;20041;-59
2023/01/20 10:16:54;;;;;;;19.15;7.15;;;;;;;15.09;59.26;99343.44;5073531;28;20477;-60
2023/01/20 10:19:29;;;;;;;15.07;6.03;;;;;;;15.03;59.30;99330.56;5073126;28;20079;-58
2023/01/20 10:22:08;;;;;;;14.23;6.55;;;;;;;15.04;59.21;99334.94;5073283;28;20040;-58
2023/01/20 10:24:44;;;;;;;17.40;6.28;;;;;;;15.02;59.45;99337.78;5073194;28;20068;-58
2023/01/20 10:27:13;;;;;;;16.05;6.63;;;;;;;15.00;59.32;99344.28;5073391;28;20065;-58
2023/01/20 10:29:47;;;;;;;15.65;6.32;;;;;;;14.96;59.54;99348.22;5073425;28;20051;-58
2023/01/20 10:32:24;;;;;;;15.63;6.38;;;;;;;14.95;59.30;99351.91;5073214;28;20408;-58
2023/01/20 10:34:54;;;;;;;16.60;6.75;;;;;;;14.95;59.50;99351.91;5073169;28;20437;-58
2023/01/20 10:37:24;;;;;;;11.13;5.78;;;;;;;14.92;59.48;99350.38;5073071;28;20047;-58
2023/01/20 10:39:56;;;;;;;15.40;6.05;;;;;;;14.90;59.48;99344.28;5073174;28;20048;-58
2023/01/20 10:42:27;;;;;;;15.82;6.78;;;;;;;14.87;59.59;99350.81;5073021;28;20147;-58
2023/01/20 10:44:55;;;;;;;15.77;6.13;;;;;;;14.86;59.36;99359.84;5072963;28;20048;-59
2023/01/20 10:47:39;;;;;;;14.25;6.47;;;;;;;14.80;59.57;99346.13;5073044;28;20067;-58
2023/01/20 10:50:38;;;;;;;13.68;5.82;;;;;;;14.83;59.46;99367.31;5073022;28;20375;-58
2023/01/20 10:53:32;;;;;;;17.77;6.75;;;;;;;14.79;59.58;99363.22;5072826;28;20105;-59
2023/01/20 10:56:32;;;;;;;14.88;5.78;;;;;;;14.77;59.68;99374.13;5072742;28;20162;-58
2023/01/20 10:59:06;;;;;;;12.38;5.75;;;;;;;14.74;59.54;99369.00;5070745;28;20056;-58
2023/01/20 11:01:35;;;;;;;13.52;6.25;;;;;;;14.75;59.36;99378.75;5072612;28;20044;-58
2023/01/20 11:04:04;;;;;;;15.10;6.43;;;;;;;14.73;59.54;99375.38;5072549;28;20044;-58
2023/01/20 11:06:33;;;;;;;12.68;6.00;;;;;;;14.67;59.29;99365.22;5072751;28;20045;-59
2023/01/20 11:09:16;;;;;;;12.60;5.93;;;;;;;14.69;59.48;99367.75;5072778;28;20049;-60
2023/01/20 11:11:44;;;;;;;13.88;6.18;;;;;;;14.67;59.57;99365.22;5072092;28;20135;-58
2023/01/20 11:14:14;;;;;;;14.52;6.13;;;;;;;14.67;59.48;99367.00;5072985;28;20051;-60
2023/01/20 11:16:45;;;;;;;13.95;6.05;;;;;;;14.64;59.59;99360.09;5072585;28;20044;-60
2023/01/20 11:19:13;;;;;;;12.32;5.80;;;;;;;14.62;59.77;99354.03;5072440;28;20456;-59
2023/01/20 11:21:42;;;;;;;14.65;5.22;;;;;;;14.60;59.66;99348.81;5072257;28;20455;-58
2023/01/20 11:24:33;;;;;;;13.27;5.75;;;;;;;14.59;59.83;99336.38;5072243;28;20094;-59
2023/01/20 11:27:06;;;;;;;11.88;5.53;;;;;;;14.56;60.11;99335.78;5072045;28;20056;-60
2023/01/20 11:29:41;;;;;;;12.73;5.82;;;;;;;14.56;59.69;99341.16;5072192;28;20067;-60
2023/01/20 11:32:26;;;;;;;13.52;5.78;;;;;;;14.50;59.48;99328.31;5072062;28;20048;-59
2023/01/20 11:34:56;;;;;;;10.10;5.22;;;;;;;14.52;59.56;99324.50;5072011;28;20080;-58
2023/01/20 11:37:26;;;;;;;11.25;5.50;;;;;;;14.52;59.62;99320.97;5071919;28;20086;-58
2023/01/20 11:40:01;;;;;;;11.45;5.82;;;;;;;14.52;59.77;99320.97;5071972;28;20127;-58
2023/01/20 11:42:43;;;;;;;14.98;5.68;;;;;;;14.47;59.39;99299.91;5071888;28;20511;-59
2023/01/20 11:45:31;;;;;;;10.98;6.07;;;;;;;14.47;59.61;99309.78;5072068;28;20051;-59
2023/01/20 11:48:06;;;;;;;10.15;5.18;;;;;;;14.48;59.49;99308.84;5071886;28;20041;-58
2023/01/20 11:50:39;;;;;;;11.38;5.65;;;;;;;14.45;59.49;99311.78;5071792;28;20048;-58
2023/01/20 11:53:20;;;;;;;12.57;5.65;;;;;;;14.42;59.35;99306.66;5071923;28;20040;-58
2023/01/20 11:55:51;;;;;;;9.90;4.97;;;;;;;14.42;59.42;99309.34;5072030;28;20051;-59
2023/01/20 11:58:21;;;;;;;10.40;5.00;;;;;;;14.36;59.43;99301.84;5071855;28;20048;-59